Socorro, New Mexico
Current Conditions -  °F | °C
As of 7:35 PM on Saturday 20 Dec 2014 (Local Time) from KONM Reporting Station
Clear Clear  
Wind Chill: 36°   Ceiling: Unl
Heat Index: 36°   Visibility: 10mi
Dew Point: 24°   Wind: 0mph
Humidity: 61%   Direction: NA
Pressure: 30.11"   Gusts: NA
Location:  34.06°N, 106.89°W
Report Text: KONM 210235Z AUTO 00000KT 10SM CLR 02/M04 A3011 RMK AO2 T00241045
Loading
Personal Weather Stations






























Interactive Weather Map New forecast layout! Learn more

10-Day Weather Forecast

Advertisements
Track Severe Weather on mobile